Главная страница
METAR-TAF:

METAR-TAF

Аэропорты :

Миккели, Финляндия

широта: 61-44N, долгота: 027-18E, высота над уровнем моря: 138 м

Текущие метеонаблюдения

Эта сводка был подготовлена 14 минут назад, в 15:50 UTC
Ветер 2 Узел от восточный
Температура -2°C
Влажность 100%
Давление 993 hPa
Видимость: 3400 м
небольшая облачность на высоте 500 фута
Сплошная облачность на высоте 4500 фута
небольшой снег

METAR: EFMI 151550Z AUTO 09002KT 3400 -SN FEW005 OVC045 M02/M02 Q0993

Время: 18:04 (16:04 UTC)


TAF: отсутствует

Метеонаблюдения и прогнозы для более 4000 аэропортов (сводки METAR и TAF).

Имеющиеся станции представлены на карте желтыми и красными точками.

Чтобы увидеть название станции, наведите на нее мышь.

Затем щелкните, чтобы увидеть метеонаблюдения и метеопрогнозы.

Управление картой: чтобы увеличить масштаб, щелкните зеленые кнопки с черным крестиком; чтобы уменьшить масштаб, щелкните зеленую кнопку с тире; для просмотра соседних карт щелкайте зеленые стрелки.


METAR-TAF: